createdAt,value
2023-04-18T00:01:02.301Z,89
2023-04-18T00:02:08.608Z,89
2023-04-18T00:03:14.838Z,89
2023-04-18T00:04:21.137Z,89
2023-04-18T00:05:27.405Z,89
2023-04-18T00:06:33.663Z,89.5
2023-04-18T00:07:38.954Z,89
2023-04-18T00:08:45.311Z,89
2023-04-18T00:09:51.494Z,89
2023-04-18T00:10:57.801Z,89
2023-04-18T00:12:04.037Z,89.5
2023-04-18T00:13:10.312Z,89.5
2023-04-18T00:14:16.584Z,89.5
2023-04-18T00:15:21.896Z,89.5
2023-04-18T00:16:27.176Z,89.5
2023-04-18T00:17:32.473Z,89.5
2023-04-18T00:18:37.767Z,89.5
2023-04-18T00:19:44.029Z,89.5
2023-04-18T00:20:49.324Z,89.5
2023-04-18T00:21:54.630Z,89.5
2023-04-18T00:23:00.884Z,89.5
2023-04-18T00:24:07.153Z,89.5
2023-04-18T00:25:13.437Z,89.5
2023-04-18T00:26:19.718Z,89.5
2023-04-18T00:27:25.977Z,89.5
2023-04-18T00:28:32.246Z,89.5
2023-04-18T00:29:38.523Z,89.5
2023-04-18T00:30:44.833Z,89.5
2023-04-18T00:31:51.063Z,89.5
2023-04-18T00:32:57.338Z,89.5
2023-04-18T00:34:03.607Z,89.5
2023-04-18T00:35:09.880Z,89.5
2023-04-18T00:36:15.180Z,89.5
2023-04-18T00:37:21.437Z,89.5
2023-04-18T00:38:27.712Z,89.5
2023-04-18T00:39:33.984Z,89.5
2023-04-18T00:40:40.268Z,89.5
2023-04-18T00:41:46.535Z,89.5
2023-04-18T00:42:52.818Z,89.5
2023-04-18T00:43:58.093Z,89.5
2023-04-18T00:45:03.395Z,89.5
2023-04-18T00:46:09.658Z,89.5
2023-04-18T00:47:14.950Z,89.5
2023-04-18T00:48:20.262Z,89.5
2023-04-18T00:49:26.522Z,89.5
2023-04-18T00:50:32.786Z,89.5
2023-04-18T00:51:39.083Z,89.5
2023-04-18T00:52:45.331Z,89.5
2023-04-18T00:53:51.613Z,89.5
2023-04-18T00:54:57.876Z,89.5
2023-04-18T00:56:04.158Z,89.5
2023-04-18T00:57:10.427Z,89.5
2023-04-18T00:58:16.703Z,89.5
2023-04-18T00:59:22.973Z,89.5
2023-04-18T01:00:29.240Z,90
2023-04-18T01:01:35.518Z,89.5
2023-04-18T01:02:40.829Z,89.5
2023-04-18T01:03:47.065Z,90
2023-04-18T01:04:53.341Z,90
2023-04-18T01:05:59.620Z,90
2023-04-18T01:07:05.890Z,90
2023-04-18T01:08:12.187Z,89.5
2023-04-18T01:09:18.441Z,89.5
2023-04-18T01:10:23.734Z,90
2023-04-18T01:11:29.027Z,89.5
2023-04-18T01:12:34.318Z,89.5
2023-04-18T01:13:39.613Z,89.5
2023-04-18T01:14:45.876Z,89.5
2023-04-18T01:15:52.146Z,89.5
2023-04-18T01:16:58.417Z,89.5
2023-04-18T01:18:04.696Z,89.5
2023-04-18T01:19:10.964Z,89.5
2023-04-18T01:20:17.243Z,89.5
2023-04-18T01:21:23.527Z,89.5
2023-04-18T01:22:29.812Z,89.5
2023-04-18T01:23:36.070Z,89.5
2023-04-18T01:24:42.361Z,89.5
2023-04-18T01:25:48.605Z,89.5
2023-04-18T01:26:54.873Z,90
2023-04-18T01:28:00.164Z,89.5
2023-04-18T01:29:06.433Z,89.5
2023-04-18T01:30:12.711Z,90
2023-04-18T01:31:19.029Z,90
2023-04-18T01:32:25.250Z,90
2023-04-18T01:33:31.532Z,89.5
2023-04-18T01:34:37.789Z,89.5
2023-04-18T01:35:43.100Z,89.5
2023-04-18T01:36:48.382Z,89.5
2023-04-18T01:37:53.684Z,89.5
2023-04-18T01:38:58.972Z,89.5
2023-04-18T01:40:05.247Z,89.5
2023-04-18T01:41:11.508Z,89.5
2023-04-18T01:42:17.791Z,89.5
2023-04-18T01:43:24.080Z,89.5
2023-04-18T01:44:30.329Z,89.5
2023-04-18T01:45:36.605Z,89.5
2023-04-18T01:46:42.871Z,89.5
2023-04-18T01:47:49.143Z,89.5
2023-04-18T01:48:55.458Z,89.5
2023-04-18T01:50:01.694Z,89.5
2023-04-18T01:51:07.961Z,89.5
2023-04-18T01:52:14.246Z,89.5
2023-04-18T01:53:19.520Z,89.5
2023-04-18T01:54:25.804Z,89.5
2023-04-18T01:55:32.057Z,89.5
2023-04-18T01:56:38.341Z,89.5
2023-04-18T01:57:44.607Z,90
2023-04-18T01:58:50.867Z,89.5
2023-04-18T01:59:57.164Z,90
2023-04-18T02:01:02.454Z,90
2023-04-18T02:02:07.742Z,90
2023-04-18T02:03:13.043Z,90
2023-04-18T02:04:18.330Z,90
2023-04-18T02:05:24.597Z,90
2023-04-18T02:06:30.859Z,89.5
2023-04-18T02:07:37.147Z,90
2023-04-18T02:08:43.433Z,90
2023-04-18T02:09:49.697Z,90
2023-04-18T02:10:55.958Z,89.5
2023-04-18T02:12:02.224Z,89.5
2023-04-18T02:13:08.503Z,89.5
2023-04-18T02:14:14.771Z,89.5
2023-04-18T02:15:21.051Z,89.5
2023-04-18T02:16:27.316Z,90
2023-04-18T02:17:33.588Z,89.5
2023-04-18T02:18:38.896Z,89.5
2023-04-18T02:19:45.150Z,89.5
2023-04-18T02:20:51.431Z,89.5
2023-04-18T02:21:57.711Z,90
2023-04-18T02:23:03.972Z,90
2023-04-18T02:24:10.242Z,90
2023-04-18T02:25:16.506Z,90
2023-04-18T02:26:21.814Z,90
2023-04-18T02:27:27.103Z,90
2023-04-18T02:28:33.371Z,90
2023-04-18T02:29:39.647Z,90
2023-04-18T02:30:44.942Z,89.5
2023-04-18T02:31:50.238Z,89.5
2023-04-18T02:32:56.506Z,89.5
2023-04-18T02:34:02.777Z,90
2023-04-18T02:35:09.053Z,90
2023-04-18T02:36:15.328Z,90
2023-04-18T02:37:21.595Z,90
2023-04-18T02:38:27.872Z,90
2023-04-18T02:39:34.134Z,90
2023-04-18T02:40:40.410Z,90
2023-04-18T02:41:46.684Z,90
2023-04-18T02:42:52.952Z,90
2023-04-18T02:43:59.218Z,90
2023-04-18T02:45:05.503Z,90
2023-04-18T02:46:10.788Z,90
2023-04-18T02:47:17.068Z,90
2023-04-18T02:48:23.329Z,90
2023-04-18T02:49:29.602Z,90
2023-04-18T02:50:35.876Z,90
2023-04-18T02:51:42.141Z,90
2023-04-18T02:52:48.426Z,90
2023-04-18T02:53:54.695Z,90
2023-04-18T02:55:00.966Z,90
2023-04-18T02:56:07.255Z,90
2023-04-18T02:57:13.504Z,90
2023-04-18T02:58:19.783Z,90
2023-04-18T02:59:26.055Z,90
2023-04-18T03:00:31.338Z,90
2023-04-18T03:01:37.621Z,90.5
2023-04-18T03:02:43.889Z,90
2023-04-18T03:03:50.150Z,90
2023-04-18T03:04:56.431Z,90
2023-04-18T03:06:02.717Z,90
2023-04-18T03:07:08.975Z,90.5
2023-04-18T03:08:15.332Z,90.5
2023-04-18T03:09:21.532Z,90.5
2023-04-18T03:10:27.790Z,90.5
2023-04-18T03:11:34.058Z,90.5
2023-04-18T03:12:40.348Z,90.5
2023-04-18T03:13:46.604Z,90.5
2023-04-18T03:14:51.907Z,90.5
2023-04-18T03:15:58.169Z,90.5
2023-04-18T03:17:04.441Z,91
2023-04-18T03:18:10.706Z,91
2023-04-18T03:19:16.979Z,91
2023-04-18T03:20:23.260Z,91
2023-04-18T03:21:28.550Z,91
2023-04-18T03:22:33.847Z,91
2023-04-18T03:23:40.112Z,91
2023-04-18T03:24:46.384Z,91
2023-04-18T03:25:51.689Z,91
2023-04-18T03:26:56.969Z,91
2023-04-18T03:28:03.241Z,91
2023-04-18T03:29:09.516Z,91
2023-04-18T03:30:15.792Z,91
2023-04-18T03:31:22.076Z,91
2023-04-18T03:32:28.333Z,91
2023-04-18T03:33:34.604Z,91
2023-04-18T03:34:39.968Z,91
2023-04-18T03:35:46.160Z,91
2023-04-18T03:36:52.451Z,91
2023-04-18T03:37:58.707Z,91
2023-04-18T03:40:11.260Z,91.5
2023-04-18T03:41:17.529Z,91.5
2023-04-18T03:42:23.808Z,91
2023-04-18T03:43:30.076Z,91
2023-04-18T03:44:36.352Z,91.5
2023-04-18T03:45:42.619Z,91.5
2023-04-18T03:46:48.902Z,91.5
2023-04-18T03:47:55.165Z,91.5
2023-04-18T03:49:01.437Z,91.5
2023-04-18T03:50:07.709Z,91.5
2023-04-18T03:51:13.003Z,91.5
2023-04-18T03:52:19.265Z,91.5
2023-04-18T03:53:25.541Z,91.5
2023-04-18T03:54:31.818Z,91.5
2023-04-18T03:55:38.088Z,91.5
2023-04-18T03:56:44.362Z,91.5
2023-04-18T03:57:50.690Z,91.5
2023-04-18T03:58:56.911Z,91.5
2023-04-18T04:00:03.182Z,91.5
2023-04-18T04:01:09.456Z,91.5
2023-04-18T04:02:15.708Z,91.5
2023-04-18T04:03:21.990Z,91.5
2023-04-18T04:04:28.268Z,91.5
2023-04-18T04:05:33.562Z,91.5
2023-04-18T04:06:39.824Z,92
2023-04-18T04:07:46.101Z,92
2023-04-18T04:08:52.367Z,92
2023-04-18T04:09:58.674Z,92
2023-04-18T04:11:04.917Z,92
2023-04-18T04:12:11.190Z,92
2023-04-18T04:13:17.460Z,92
2023-04-18T04:14:23.734Z,92
2023-04-18T04:15:30.005Z,92
2023-04-18T04:16:36.273Z,92
2023-04-18T04:17:42.551Z,92.5
2023-04-18T04:18:48.824Z,92.5
2023-04-18T04:19:54.117Z,92.5
2023-04-18T04:21:00.410Z,92.5
2023-04-18T04:22:06.661Z,92.5
2023-04-18T04:23:12.923Z,92.5
2023-04-18T04:24:19.256Z,92.5
2023-04-18T04:25:25.480Z,92.5
2023-04-18T04:26:31.753Z,92.5
2023-04-18T04:27:38.009Z,92
2023-04-18T04:28:44.299Z,92
2023-04-18T04:29:50.554Z,92
2023-04-18T04:30:56.834Z,92
2023-04-18T04:32:03.111Z,92
2023-04-18T04:33:09.374Z,92
2023-04-18T04:34:14.668Z,92
2023-04-18T04:35:20.942Z,92.5
2023-04-18T04:36:27.201Z,92
2023-04-18T04:37:33.484Z,92
2023-04-18T04:38:39.748Z,92
2023-04-18T04:39:46.041Z,92
2023-04-18T04:40:52.279Z,92
2023-04-18T04:41:58.577Z,92
2023-04-18T04:43:04.852Z,92
2023-04-18T04:44:11.271Z,92
2023-04-18T04:46:23.714Z,92
2023-04-18T04:47:29.923Z,92
2023-04-18T04:48:35.214Z,91.5
2023-04-18T04:49:41.540Z,91.5
2023-04-18T04:50:47.804Z,91.5
2023-04-18T04:51:54.027Z,92
2023-04-18T04:53:00.301Z,92
2023-04-18T04:54:06.564Z,92
2023-04-18T04:55:12.844Z,92
2023-04-18T04:56:19.160Z,91.5
2023-04-18T04:57:25.387Z,92
2023-04-18T04:58:31.657Z,92
2023-04-18T04:59:37.929Z,92
2023-04-18T05:00:44.205Z,91.5
2023-04-18T05:01:50.491Z,91.5
2023-04-18T05:02:56.885Z,91.5
2023-04-18T05:04:03.144Z,91.5
2023-04-18T05:05:09.432Z,91.5
2023-04-18T05:06:15.682Z,91.5
2023-04-18T05:07:21.969Z,91.5
2023-04-18T05:08:28.251Z,91.5
2023-04-18T05:09:34.503Z,91.5
2023-04-18T05:10:40.781Z,91.5
2023-04-18T05:11:47.038Z,91.5
2023-04-18T05:12:53.330Z,91.5
2023-04-18T05:13:59.615Z,91.5
2023-04-18T05:15:05.864Z,91.5
2023-04-18T05:16:12.138Z,91.5
2023-04-18T05:17:17.420Z,91.5
2023-04-18T05:18:23.713Z,91.5
2023-04-18T05:19:29.967Z,91.5
2023-04-18T05:20:36.240Z,91.5
2023-04-18T05:21:42.547Z,91.5
2023-04-18T05:22:48.787Z,91.5
2023-04-18T05:23:55.058Z,91.5
2023-04-18T05:25:01.371Z,91.5
2023-04-18T05:26:07.610Z,91.5
2023-04-18T05:27:13.891Z,91.5
2023-04-18T05:28:20.155Z,91.5
2023-04-18T05:29:26.419Z,91.5
2023-04-18T05:30:32.674Z,91.5
2023-04-18T05:31:37.976Z,91.5
2023-04-18T05:32:44.255Z,91.5
2023-04-18T05:33:50.541Z,91.5
2023-04-18T05:34:56.799Z,91.5
2023-04-18T05:36:03.079Z,91.5
2023-04-18T05:37:09.332Z,91.5
2023-04-18T05:38:15.610Z,91.5
2023-04-18T05:39:21.888Z,91
2023-04-18T05:40:27.175Z,91
2023-04-18T05:41:32.469Z,91
2023-04-18T05:42:37.771Z,91
2023-04-18T05:43:43.049Z,91
2023-04-18T05:44:49.340Z,91
2023-04-18T05:45:55.605Z,91
2023-04-18T05:47:01.874Z,91
2023-04-18T05:48:08.146Z,91
2023-04-18T05:49:14.443Z,91
2023-04-18T05:50:20.694Z,91
2023-04-18T05:52:33.227Z,91
2023-04-18T05:53:39.518Z,91
2023-04-18T05:54:45.775Z,91
2023-04-18T05:55:52.068Z,91
2023-04-18T05:56:58.335Z,91
2023-04-18T05:58:03.613Z,91
2023-04-18T05:59:09.886Z,91
2023-04-18T06:00:16.158Z,91
2023-04-18T06:01:22.447Z,91
2023-04-18T06:02:28.701Z,91
2023-04-18T06:03:34.973Z,91
2023-04-18T06:04:41.233Z,91
2023-04-18T06:05:47.513Z,91
2023-04-18T06:06:53.794Z,91
2023-04-18T06:08:00.130Z,91
2023-04-18T06:09:06.327Z,90.5
2023-04-18T06:10:12.613Z,90.5
2023-04-18T06:11:18.874Z,90.5
2023-04-18T06:12:24.165Z,90
2023-04-18T06:13:30.450Z,90
2023-04-18T06:14:36.769Z,90
2023-04-18T06:15:43.059Z,90
2023-04-18T06:16:49.254Z,90
2023-04-18T06:17:55.619Z,89.5
2023-04-18T06:19:01.800Z,89.5
2023-04-18T06:20:08.085Z,89.5
2023-04-18T06:21:14.348Z,89
2023-04-18T06:22:20.620Z,89
2023-04-18T06:23:26.891Z,89
2023-04-18T06:24:33.163Z,89
2023-04-18T06:25:39.441Z,89
2023-04-18T06:26:44.725Z,89
2023-04-18T06:27:50.995Z,88.5
2023-04-18T06:28:57.268Z,88.5
2023-04-18T06:30:03.655Z,88.5
2023-04-18T06:31:09.840Z,88.5
2023-04-18T06:32:16.071Z,88.5
2023-04-18T06:33:22.355Z,88.5
2023-04-18T06:34:28.694Z,88
2023-04-18T06:35:34.942Z,88
2023-04-18T06:36:41.162Z,88
2023-04-18T06:37:47.433Z,88
2023-04-18T06:38:53.756Z,88
2023-04-18T06:39:59.997Z,88
2023-04-18T06:41:05.327Z,88
2023-04-18T06:42:11.543Z,88
2023-04-18T06:43:17.804Z,88
2023-04-18T06:44:24.086Z,88
2023-04-18T06:45:30.400Z,88
2023-04-18T06:46:36.657Z,88
2023-04-18T06:47:42.991Z,88
2023-04-18T06:48:49.177Z,88
2023-04-18T06:49:55.619Z,88
2023-04-18T06:51:01.725Z,88
2023-04-18T06:52:07.991Z,88
2023-04-18T06:53:14.391Z,88
2023-04-18T06:54:20.548Z,88
2023-04-18T06:55:25.813Z,88
2023-04-18T06:56:32.127Z,88
2023-04-18T06:57:38.395Z,88.5
2023-04-18T06:58:44.639Z,88.5
2023-04-18T06:59:50.915Z,88.5
2023-04-18T07:00:57.182Z,88.5
2023-04-18T07:02:03.460Z,88.5
2023-04-18T07:03:09.725Z,88.5
2023-04-18T07:04:16.133Z,88.5
2023-04-18T07:05:22.313Z,88
2023-04-18T07:06:27.634Z,88.5
2023-04-18T07:07:32.852Z,88
2023-04-18T07:08:38.200Z,88
2023-04-18T07:09:43.544Z,88
2023-04-18T07:10:49.753Z,88
2023-04-18T07:11:56.017Z,88
2023-04-18T07:13:02.415Z,88
2023-04-18T07:14:08.542Z,88
2023-04-18T07:15:14.798Z,88.5
2023-04-18T07:16:20.250Z,88
2023-04-18T07:17:26.361Z,88
2023-04-18T07:18:32.658Z,88
2023-04-18T07:19:39.037Z,88
2023-04-18T07:20:45.179Z,88
2023-04-18T07:21:51.600Z,88
2023-04-18T07:22:57.817Z,88
2023-04-18T07:24:04.037Z,87.5
2023-04-18T07:25:10.271Z,88
2023-04-18T07:26:16.605Z,88
2023-04-18T07:27:22.811Z,88
2023-04-18T07:28:29.090Z,88
2023-04-18T07:29:35.379Z,88
2023-04-18T07:30:40.645Z,88
2023-04-18T07:31:46.918Z,88
2023-04-18T07:32:53.347Z,88
2023-04-18T07:33:59.524Z,88
2023-04-18T07:35:05.826Z,88
2023-04-18T07:36:12.002Z,88
2023-04-18T07:37:18.298Z,88
2023-04-18T07:38:24.618Z,88
2023-04-18T07:39:30.829Z,88
2023-04-18T07:40:37.097Z,88
2023-04-18T07:41:43.496Z,88
2023-04-18T07:42:49.640Z,88
2023-04-18T07:43:55.914Z,88
2023-04-18T07:45:01.201Z,88
2023-04-18T07:46:07.479Z,87.5
2023-04-18T07:47:13.765Z,87.5
2023-04-18T07:48:20.109Z,87.5
2023-04-18T07:49:26.307Z,87
2023-04-18T07:50:32.622Z,87.5
2023-04-18T07:51:38.830Z,87
2023-04-18T07:52:45.327Z,87
2023-04-18T07:53:51.458Z,87
2023-04-18T07:54:57.646Z,87.5
2023-04-18T07:56:04.029Z,87
2023-04-18T07:57:10.281Z,87
2023-04-18T07:58:16.569Z,87
2023-04-18T07:59:21.786Z,87
2023-04-18T08:00:28.161Z,87
2023-04-18T08:01:33.316Z,87.5
2023-04-18T08:02:38.607Z,87
2023-04-18T08:03:45.036Z,86.5
2023-04-18T08:04:51.155Z,86.5
2023-04-18T08:05:57.427Z,85.5
2023-04-18T08:07:03.704Z,85.5
2023-04-18T08:08:09.006Z,85.5
2023-04-18T08:09:14.292Z,85.5
2023-04-18T08:10:20.734Z,85.5
2023-04-18T08:11:26.934Z,85.5
2023-04-18T08:12:33.322Z,85.5
2023-04-18T08:13:39.520Z,85
2023-04-18T08:14:45.655Z,85
2023-04-18T08:15:51.920Z,85.5
2023-04-18T08:16:58.206Z,85.5
2023-04-18T08:18:04.464Z,85.5
2023-04-18T08:19:10.733Z,85.5
2023-04-18T08:20:17.004Z,85.5
2023-04-18T08:21:23.289Z,85
2023-04-18T08:22:29.557Z,85
2023-04-18T08:23:35.830Z,85
2023-04-18T08:24:41.113Z,85.5
2023-04-18T08:25:47.378Z,85
2023-04-18T08:26:53.718Z,85
2023-04-18T08:27:59.952Z,85
2023-04-18T08:29:06.211Z,84.5
2023-04-18T08:30:12.611Z,85
2023-04-18T08:31:17.878Z,85
2023-04-18T08:32:23.157Z,85
2023-04-18T08:33:28.357Z,85
2023-04-18T08:34:33.640Z,84.5
2023-04-18T08:35:39.907Z,84.5
2023-04-18T08:36:46.186Z,84.5
2023-04-18T08:37:52.457Z,84
2023-04-18T08:38:58.733Z,84
2023-04-18T08:40:05.004Z,84.5
2023-04-18T08:41:11.296Z,84.5
2023-04-18T08:42:17.556Z,84.5
2023-04-18T08:43:23.827Z,84.5
2023-04-18T08:44:30.092Z,84.5
2023-04-18T08:45:36.367Z,84.5
2023-04-18T08:46:42.634Z,84.5
2023-04-18T08:47:48.906Z,84.5
2023-04-18T08:48:54.214Z,84.5
2023-04-18T08:50:00.470Z,84.5
2023-04-18T08:51:06.736Z,84.5
2023-04-18T08:52:13.007Z,84.5
2023-04-18T08:53:19.279Z,84.5
2023-04-18T08:54:25.555Z,84
2023-04-18T08:55:31.829Z,84
2023-04-18T08:56:37.123Z,83.5
2023-04-18T08:57:42.524Z,84
2023-04-18T08:58:47.710Z,84
2023-04-18T08:59:52.998Z,84
2023-04-18T09:00:59.275Z,84
2023-04-18T09:02:05.551Z,84
2023-04-18T09:03:11.812Z,83.5
2023-04-18T09:04:18.089Z,83.5
2023-04-18T09:05:24.355Z,83.5
2023-04-18T09:06:30.630Z,83
2023-04-18T09:07:36.930Z,83
2023-04-18T09:08:43.185Z,82.5
2023-04-18T09:09:49.454Z,82.5
2023-04-18T09:10:55.719Z,82
2023-04-18T09:12:01.992Z,82
2023-04-18T09:13:08.266Z,82
2023-04-18T09:14:13.547Z,81.5
2023-04-18T09:15:19.821Z,81.5
2023-04-18T09:16:26.128Z,81
2023-04-18T09:17:32.403Z,81
2023-04-18T09:18:38.636Z,81
2023-04-18T09:19:44.915Z,80.5
2023-04-18T09:20:51.215Z,80
2023-04-18T09:21:57.456Z,80
2023-04-18T09:23:03.762Z,80
2023-04-18T09:24:09.993Z,79.5
2023-04-18T09:25:16.270Z,80
2023-04-18T09:26:22.566Z,79.5
2023-04-18T09:27:28.817Z,79.5
2023-04-18T09:28:35.165Z,79
2023-04-18T09:29:40.382Z,79
2023-04-18T09:30:46.661Z,79.5
2023-04-18T09:31:52.999Z,79
2023-04-18T09:32:59.415Z,79
2023-04-18T09:34:05.459Z,79
2023-04-18T09:35:11.759Z,79.5
2023-04-18T09:36:18.006Z,79
2023-04-18T09:37:24.285Z,79
2023-04-18T09:38:30.550Z,79.5
2023-04-18T09:39:36.817Z,79.5
2023-04-18T09:40:43.111Z,79.5
2023-04-18T09:41:49.369Z,79.5
2023-04-18T09:44:01.901Z,79.5
2023-04-18T09:45:07.197Z,79
2023-04-18T09:46:13.470Z,79
2023-04-18T09:47:19.787Z,79
2023-04-18T09:48:25.043Z,79
2023-04-18T09:49:30.332Z,78.5
2023-04-18T09:50:35.645Z,78.5
2023-04-18T09:51:40.918Z,78.5
2023-04-18T09:52:47.191Z,78
2023-04-18T09:53:53.473Z,78.5
2023-04-18T09:54:59.739Z,78.5
2023-04-18T09:56:06.032Z,78
2023-04-18T09:57:12.299Z,78
2023-04-18T09:58:18.562Z,78
2023-04-18T09:59:24.810Z,77.5
2023-04-18T10:00:31.121Z,78
2023-04-18T10:01:37.364Z,77.5
2023-04-18T10:02:43.632Z,77.5
2023-04-18T10:03:49.902Z,77
2023-04-18T10:04:56.215Z,78
2023-04-18T10:06:01.477Z,77.5
2023-04-18T10:07:07.737Z,78
2023-04-18T10:08:14.008Z,77
2023-04-18T10:09:20.282Z,76.5
2023-04-18T10:10:26.554Z,76.5
2023-04-18T10:11:32.826Z,76
2023-04-18T10:12:39.128Z,77
2023-04-18T10:13:45.372Z,76.5
2023-04-18T10:14:51.642Z,75.5
2023-04-18T10:15:57.949Z,75.5
2023-04-18T10:17:04.208Z,75.5
2023-04-18T10:18:10.458Z,75
2023-04-18T10:19:16.764Z,74.5
2023-04-18T10:20:23.002Z,75
2023-04-18T10:21:29.267Z,74.5
2023-04-18T10:22:34.610Z,74
2023-04-18T10:23:39.872Z,74
2023-04-18T10:24:46.130Z,73.5
2023-04-18T10:25:52.400Z,74
2023-04-18T10:26:58.674Z,74.5
2023-04-18T10:28:03.979Z,74.5
2023-04-18T10:29:09.260Z,74.5
2023-04-18T10:30:15.536Z,75
2023-04-18T10:31:21.807Z,75
2023-04-18T10:33:34.350Z,74.5
2023-04-18T10:34:40.649Z,74.5
2023-04-18T10:35:46.902Z,75
2023-04-18T10:36:53.172Z,74.5
2023-04-18T10:37:59.442Z,74
2023-04-18T10:39:05.718Z,74
2023-04-18T10:40:11.986Z,74
2023-04-18T10:41:18.260Z,74
2023-04-18T10:42:24.637Z,74
2023-04-18T10:43:30.032Z,74
2023-04-18T10:44:36.262Z,74
2023-04-18T10:45:42.384Z,73.5
2023-04-18T10:46:48.626Z,73
2023-04-18T10:47:54.912Z,73.5
2023-04-18T10:49:01.183Z,73
2023-04-18T10:50:07.496Z,73
2023-04-18T10:51:13.737Z,72
2023-04-18T10:52:20.036Z,72.5
2023-04-18T10:53:26.264Z,72.5
2023-04-18T10:54:32.588Z,72.5
2023-04-18T10:55:38.925Z,72.5
2023-04-18T10:56:45.169Z,73
2023-04-18T10:57:50.363Z,72.5
2023-04-18T10:58:56.635Z,73
2023-04-18T11:00:02.909Z,72.5
2023-04-18T11:01:09.362Z,73
2023-04-18T11:02:15.453Z,73
2023-04-18T11:03:21.741Z,74
2023-04-18T11:04:28.074Z,73
2023-04-18T11:05:34.269Z,72.5
2023-04-18T11:06:40.543Z,73
2023-04-18T11:07:46.825Z,73
2023-04-18T11:08:53.085Z,72.5
2023-04-18T11:09:59.372Z,72.5
2023-04-18T11:11:05.661Z,72.5
2023-04-18T11:12:11.948Z,72.5
2023-04-18T11:13:17.313Z,72.5
2023-04-18T11:14:23.602Z,73
2023-04-18T11:15:29.836Z,73.5
2023-04-18T11:16:35.993Z,73
2023-04-18T11:17:42.278Z,73
2023-04-18T11:18:48.541Z,73
2023-04-18T11:19:54.818Z,72.5
2023-04-18T11:21:01.094Z,72.5
2023-04-18T11:22:07.359Z,72.5
2023-04-18T11:23:13.639Z,72.5
2023-04-18T11:24:19.920Z,73
2023-04-18T11:25:26.207Z,72.5
2023-04-18T11:26:32.449Z,73
2023-04-18T11:27:38.874Z,73
2023-04-18T11:28:44.139Z,73.5
2023-04-18T11:29:50.447Z,74
2023-04-18T11:30:56.581Z,73.5
2023-04-18T11:32:02.894Z,73.5
2023-04-18T11:33:09.109Z,74
2023-04-18T11:34:15.365Z,74
2023-04-18T11:35:21.647Z,74
2023-04-18T11:36:27.911Z,74.5
2023-04-18T11:37:34.198Z,74.5
2023-04-18T11:38:40.448Z,74.5
2023-04-18T11:39:46.756Z,74.5
2023-04-18T11:40:53.065Z,74
2023-04-18T11:41:59.299Z,73.5
2023-04-18T11:43:05.732Z,72.5
2023-04-18T11:44:10.819Z,72.5
2023-04-18T11:45:17.101Z,72
2023-04-18T11:46:23.377Z,71.5
2023-04-18T11:47:29.646Z,71.5
2023-04-18T11:48:35.912Z,71.5
2023-04-18T11:49:42.193Z,71
2023-04-18T11:50:48.472Z,71
2023-04-18T11:51:54.729Z,71
2023-04-18T11:53:00.997Z,70.5
2023-04-18T11:54:07.273Z,70.5
2023-04-18T11:55:13.540Z,70.5
2023-04-18T11:56:19.817Z,70.5
2023-04-18T11:57:26.098Z,71
2023-04-18T11:58:31.405Z,71
2023-04-18T11:59:37.647Z,71
2023-04-18T12:00:43.921Z,71
2023-04-18T12:01:50.240Z,71.5
2023-04-18T12:02:56.463Z,71.5
2023-04-18T12:04:02.726Z,71.5
2023-04-18T12:05:09.007Z,71.5
2023-04-18T12:06:15.272Z,71
2023-04-18T12:07:21.547Z,71
2023-04-18T12:08:27.848Z,71
2023-04-18T12:09:34.096Z,70.5
2023-04-18T12:10:40.366Z,70.5
2023-04-18T12:11:46.640Z,71
2023-04-18T12:12:51.938Z,71
2023-04-18T12:13:58.194Z,70.5
2023-04-18T12:15:04.559Z,71
2023-04-18T12:16:09.762Z,70.5
2023-04-18T12:17:15.062Z,70.5
2023-04-18T12:18:20.353Z,71
2023-04-18T12:19:25.654Z,70.5
2023-04-18T12:20:31.921Z,71
2023-04-18T12:21:38.189Z,71
2023-04-18T12:22:44.467Z,70
2023-04-18T12:23:50.730Z,69
2023-04-18T12:24:56.999Z,69.5
2023-04-18T12:26:03.279Z,69
2023-04-18T12:27:09.543Z,68.5
2023-04-18T12:28:15.813Z,68
2023-04-18T12:29:22.084Z,68
2023-04-18T12:30:28.366Z,68
2023-04-18T12:31:34.641Z,68.5
2023-04-18T12:32:40.903Z,68
2023-04-18T12:33:46.225Z,68.5
2023-04-18T12:34:52.463Z,68.5
2023-04-18T12:35:58.736Z,68.5
2023-04-18T12:37:05.004Z,69.5
2023-04-18T12:38:11.272Z,69.5
2023-04-18T12:39:17.544Z,69.5
2023-04-18T12:40:23.820Z,69.5
2023-04-18T12:41:29.116Z,69.5
2023-04-18T12:42:34.411Z,69
2023-04-18T12:43:39.696Z,70
2023-04-18T12:44:44.999Z,69
2023-04-18T12:45:51.258Z,69.5
2023-04-18T12:46:57.548Z,70
2023-04-18T12:48:03.889Z,70.5
2023-04-18T12:49:10.075Z,70.5
2023-04-18T12:50:16.348Z,70.5
2023-04-18T12:51:22.679Z,70.5
2023-04-18T12:52:28.886Z,70
2023-04-18T12:53:35.160Z,70
2023-04-18T12:54:41.466Z,70.5
2023-04-18T12:55:47.751Z,70
2023-04-18T12:56:54.007Z,70.5
2023-04-18T12:58:00.286Z,69
2023-04-18T12:59:05.556Z,69.5
2023-04-18T13:00:11.798Z,69
2023-04-18T13:01:18.091Z,69.5
2023-04-18T13:02:24.370Z,70
2023-04-18T13:03:30.643Z,70
2023-04-18T13:04:36.932Z,70.5
2023-04-18T13:05:43.204Z,70
2023-04-18T13:06:48.474Z,70
2023-04-18T13:07:53.779Z,70
2023-04-18T13:09:00.047Z,69.5
2023-04-18T13:10:06.303Z,69.5
2023-04-18T13:11:12.621Z,70
2023-04-18T13:12:18.839Z,69.5
2023-04-18T13:13:25.108Z,70
2023-04-18T13:14:31.420Z,69.5
2023-04-18T13:15:37.653Z,70
2023-04-18T13:16:43.944Z,70
2023-04-18T13:17:50.199Z,70.5
2023-04-18T13:18:56.488Z,70
2023-04-18T13:20:02.754Z,70.5
2023-04-18T13:21:09.028Z,70
2023-04-18T13:22:14.311Z,70.5
2023-04-18T13:23:20.577Z,70.5
2023-04-18T13:24:26.852Z,70.5
2023-04-18T13:25:33.119Z,70.5
2023-04-18T13:26:39.395Z,70.5
2023-04-18T13:27:45.697Z,70.5
2023-04-18T13:28:52.314Z,70.5
2023-04-18T13:29:57.271Z,70.5
2023-04-18T13:31:02.524Z,70.5
2023-04-18T13:32:07.835Z,70.5
2023-04-18T13:33:13.124Z,70.5
2023-04-18T13:34:19.392Z,71
2023-04-18T13:35:25.642Z,71.5
2023-04-18T13:36:30.944Z,71.5
2023-04-18T13:37:36.238Z,70.5
2023-04-18T13:38:42.538Z,71.5
2023-04-18T13:39:48.785Z,71
2023-04-18T13:40:55.059Z,71
2023-04-18T13:42:01.327Z,71
2023-04-18T13:43:07.598Z,71
2023-04-18T13:44:13.898Z,71
2023-04-18T13:45:20.142Z,71
2023-04-18T13:46:26.413Z,70.5
2023-04-18T13:47:32.700Z,71
2023-04-18T13:48:38.967Z,70.5
2023-04-18T13:49:45.228Z,70.5
2023-04-18T13:50:51.506Z,70
2023-04-18T13:51:56.812Z,70.5
2023-04-18T13:53:03.089Z,70.5
2023-04-18T13:54:09.326Z,70
2023-04-18T13:55:15.600Z,70
2023-04-18T13:56:21.869Z,70.5
2023-04-18T13:57:28.145Z,70
2023-04-18T13:58:34.419Z,70
2023-04-18T13:59:39.707Z,70.5
2023-04-18T14:00:44.997Z,71
2023-04-18T14:01:50.301Z,70.5
2023-04-18T14:02:55.616Z,70.5
2023-04-18T14:04:01.880Z,70.5
2023-04-18T14:05:08.132Z,71
2023-04-18T14:06:14.424Z,71.5
2023-04-18T14:07:20.673Z,72
2023-04-18T14:08:26.952Z,72
2023-04-18T14:09:33.251Z,71.5
2023-04-18T14:10:39.505Z,71.5
2023-04-18T14:11:45.760Z,71.5
2023-04-18T14:12:52.032Z,72
2023-04-18T14:13:58.297Z,72
2023-04-18T14:15:04.573Z,72
2023-04-18T14:16:10.855Z,72
2023-04-18T14:17:16.137Z,72
2023-04-18T14:18:22.410Z,72
2023-04-18T14:19:28.674Z,72.5
2023-04-18T14:20:34.955Z,72
2023-04-18T14:21:41.222Z,71.5
2023-04-18T14:22:47.605Z,72
2023-04-18T14:23:53.764Z,72
2023-04-18T14:24:59.059Z,72
2023-04-18T14:26:04.352Z,72
2023-04-18T14:27:10.653Z,72
2023-04-18T14:28:16.901Z,72
2023-04-18T14:29:23.176Z,72
2023-04-18T14:30:28.545Z,71.5
2023-04-18T14:31:33.786Z,71.5
2023-04-18T14:32:40.246Z,71.5
2023-04-18T14:33:46.464Z,71.5
2023-04-18T14:34:52.768Z,71.5
2023-04-18T14:35:58.837Z,71
2023-04-18T14:37:05.104Z,71.5
2023-04-18T14:38:11.557Z,71.5
2023-04-18T14:39:16.682Z,71
2023-04-18T14:40:23.089Z,71
2023-04-18T14:41:29.231Z,71
2023-04-18T14:42:35.552Z,71
2023-04-18T14:43:41.812Z,70.5
2023-04-18T14:44:48.176Z,71
2023-04-18T14:45:54.340Z,70.5
2023-04-18T14:47:00.695Z,70.5
2023-04-18T14:48:06.866Z,70.5
2023-04-18T14:49:13.334Z,70.5
2023-04-18T14:50:19.568Z,70
2023-04-18T14:51:25.766Z,70
2023-04-18T14:52:31.932Z,70
2023-04-18T14:53:37.326Z,70
2023-04-18T14:54:42.635Z,70
2023-04-18T14:55:47.818Z,70.5
2023-04-18T14:56:53.229Z,69.5
2023-04-18T14:57:59.481Z,70.5
2023-04-18T14:59:05.655Z,69.5
2023-04-18T15:00:11.985Z,69.5
2023-04-18T15:01:18.280Z,69.5
2023-04-18T15:02:24.590Z,69.5
2023-04-18T15:03:30.772Z,69.5
2023-04-18T15:04:37.005Z,69.5
2023-04-18T15:05:43.298Z,70
2023-04-18T15:06:49.582Z,69
2023-04-18T15:07:55.873Z,69
2023-04-18T15:09:02.124Z,70
2023-04-18T15:10:08.365Z,69
2023-04-18T15:11:13.664Z,69
2023-04-18T15:12:19.934Z,69
2023-04-18T15:14:32.478Z,68.5
2023-04-18T15:15:38.880Z,70
2023-04-18T15:16:45.034Z,69
2023-04-18T15:17:51.315Z,69